Time;durP1;ratioP1;P1;durP2;ratioP2;P2;SDS_P1;SDS_P2;PMS_P1;PMS_P2;Temp;Humidity;BMP_temperature;BMP_pressure;BME280_temperature;BME280_humidity;BME280_pressure;Samples;Min_cycle;Max_cycle;Signal;HPM_P1;HPM_P2
2023/07/18 00:00:14;;;;;;;10.48;4.00;;;13.50;99.90;;;;;;6150939;23;20029;-82
2023/07/18 00:02:42;;;;;;;11.60;3.80;;;12.70;99.90;;;;;;6252525;22;20029;-82
2023/07/18 00:05:14;;;;;;;15.00;4.18;;;12.70;99.90;;;;;;6252166;22;20450;-81
2023/07/18 00:07:41;;;;;;;12.57;4.13;;;12.70;99.90;;;;;;6251937;22;20017;-81
2023/07/18 00:10:08;;;;;;;11.82;4.20;;;13.20;99.90;;;;;;6150589;23;20014;-82
2023/07/18 00:12:35;;;;;;;13.45;4.05;;;12.60;99.90;;;;;;6148427;23;20017;-82
2023/07/18 00:15:04;;;;;;;10.60;4.03;;;12.60;99.90;;;;;;6150919;23;20022;-83
2023/07/18 00:17:33;;;;;;;10.75;4.00;;;12.90;99.90;;;;;;6251056;22;20025;-82
2023/07/18 00:22:59;;;;;;;12.50;4.55;;;13.60;99.90;;;;;;6252352;22;20029;-81
2023/07/18 00:25:25;;;;;;;13.82;4.53;;;12.50;99.90;;;;;;6147451;22;20051;-81
2023/07/18 00:28:00;;;;;;;11.98;4.50;;;12.50;99.90;;;;;;6250167;22;20049;-82
2023/07/18 00:30:29;;;;;;;13.25;4.55;;;12.60;99.90;;;;;;6149079;23;20022;-82
2023/07/18 00:33:01;;;;;;;10.70;4.38;;;12.50;99.90;;;;;;6250320;22;20026;-82
2023/07/18 00:35:27;;;;;;;12.43;4.80;;;13.60;99.90;;;;;;6149691;22;20043;-82
2023/07/18 00:38:05;;;;;;;14.32;4.57;;;12.50;99.90;;;;;;6252577;22;20055;-82
2023/07/18 00:40:41;;;;;;;11.63;4.63;;;12.40;99.90;;;;;;6252514;22;20009;-82
2023/07/18 00:43:34;;;;;;;12.55;4.30;;;13.20;99.90;;;;;;6150749;23;20092;-82
2023/07/18 00:46:03;;;;;;;10.65;3.90;;;12.50;99.90;;;;;;6150446;23;20032;-82
2023/07/18 00:48:34;;;;;;;15.23;5.22;;;12.40;99.90;;;;;;6253841;22;20025;-82
2023/07/18 00:51:03;;;;;;;11.90;4.22;;;12.40;99.90;;;;;;6156880;22;20045;-82
2023/07/18 00:53:29;;;;;;;12.70;4.40;;;12.40;99.90;;;;;;6253582;22;20025;-80
2023/07/18 00:55:59;;;;;;;13.18;5.20;;;12.40;99.90;;;;;;6254966;22;20079;-82
2023/07/18 00:58:29;;;;;;;13.70;4.82;;;12.40;99.90;;;;;;6253748;22;20017;-82
2023/07/18 01:04:29;;;;;;;13.70;4.70;;;12.10;99.90;;;;;;6269231;22;20021;-80
2023/07/18 01:06:55;;;;;;;13.35;5.03;;;12.40;99.90;;;;;;6258223;22;20063;-81
2023/07/18 01:09:21;;;;;;;13.05;4.90;;;12.50;99.90;;;;;;6254299;22;20060;-80
2023/07/18 01:12:02;;;;;;;14.45;5.72;;;12.40;99.90;;;;;;6253168;22;20009;-80
2023/07/18 01:14:28;;;;;;;11.95;4.93;;;12.40;99.90;;;;;;6252751;22;20014;-80
2023/07/18 01:16:54;;;;;;;12.93;5.22;;;12.40;99.90;;;;;;6254291;22;20469;-80
2023/07/18 01:19:25;;;;;;;14.75;5.43;;;12.40;99.90;;;;;;6256113;22;20214;-80
2023/07/18 01:22:02;;;;;;;11.75;4.65;;;12.30;99.90;;;;;;6150295;23;20060;-81
2023/07/18 01:24:28;;;;;;;14.75;4.63;;;13.30;99.90;;;;;;6254824;22;20014;-80
2023/07/18 01:26:59;;;;;;;14.43;5.00;;;12.40;99.90;;;;;;6254350;22;20104;-80
2023/07/18 01:29:25;;;;;;;15.10;4.63;;;12.20;99.90;;;;;;6149886;22;20035;-80
2023/07/18 01:31:51;;;;;;;13.05;4.53;;;12.30;99.90;;;;;;6253194;22;20484;-81
2023/07/18 01:34:16;;;;;;;14.40;5.25;;;12.30;99.90;;;;;;6151658;23;20013;-81
2023/07/18 01:36:54;;;;;;;12.20;4.82;;;12.30;99.90;;;;;;6252484;22;20017;-80
2023/07/18 01:39:20;;;;;;;11.57;4.90;;;12.30;99.90;;;;;;6253299;22;20029;-81
2023/07/18 01:41:58;;;;;;;13.90;4.90;;;13.50;99.90;;;;;;6251859;22;20021;-80
2023/07/18 01:44:27;;;;;;;12.27;4.63;;;12.30;99.90;;;;;;6253217;22;20349;-81
2023/07/18 01:46:52;;;;;;;12.77;4.85;;;12.30;99.90;;;;;;6150244;22;20060;-81
2023/07/18 01:49:35;;;;;;;13.30;5.10;;;12.20;99.90;;;;;;6149310;23;20055;-81
2023/07/18 01:52:01;;;;;;;12.75;4.35;;;12.30;99.90;;;;;;6199874;22;20055;-81
2023/07/18 01:54:29;;;;;;;12.15;4.82;;;12.30;99.90;;;;;;6146095;22;20023;-80
2023/07/18 01:57:09;;;;;;;12.20;4.80;;;12.30;99.90;;;;;;6149604;23;20017;-81
2023/07/18 01:59:34;;;;;;;14.27;5.15;;;11.80;99.90;;;;;;6151383;23;20017;-81
2023/07/18 02:02:04;;;;;;;11.30;4.68;;;13.50;99.90;;;;;;6124054;23;20485;-81
2023/07/18 02:05:00;;;;;;;12.63;4.68;;;13.10;99.90;;;;;;6148659;23;20022;-81
2023/07/18 02:07:27;;;;;;;10.55;4.65;;;12.30;99.90;;;;;;6150048;23;20033;-81
2023/07/18 02:09:52;;;;;;;12.40;5.00;;;13.00;99.90;;;;;;6150180;23;20026;-81
2023/07/18 02:12:19;;;;;;;17.85;4.85;;;12.30;99.90;;;;;;6124823;23;20017;-81
2023/07/18 02:14:45;;;;;;;12.13;4.80;;;12.30;99.90;;;;;;6124853;23;20021;-82
2023/07/18 02:17:10;;;;;;;12.07;4.80;;;12.30;99.90;;;;;;6150054;23;20075;-81
2023/07/18 02:19:36;;;;;;;12.48;4.63;;;12.30;99.90;;;;;;6123576;23;20025;-81
2023/07/18 02:22:03;;;;;;;12.70;5.15;;;12.30;99.90;;;;;;6150587;23;20053;-81
2023/07/18 02:24:48;;;;;;;13.13;4.78;;;12.20;99.90;;;;;;6123268;23;20020;-81
2023/07/18 02:27:14;;;;;;;12.48;4.82;;;12.20;99.90;;;;;;6124356;22;20330;-81
2023/07/18 02:29:39;;;;;;;16.55;4.78;;;12.30;99.90;;;;;;6123670;23;20014;-81
2023/07/18 02:32:15;;;;;;;;;;;;;;;;;;;;;
2023/07/18 02:34:48;;;;;;;12.05;4.95;;;11.80;99.90;;;;;;6149810;22;20013;-81
2023/07/18 02:37:14;;;;;;;12.15;4.57;;;12.10;99.90;;;;;;6124246;23;20052;-81
2023/07/18 02:39:42;;;;;;;14.68;4.70;;;12.10;99.90;;;;;;6123776;23;20350;-81
2023/07/18 02:42:17;;;;;;;14.18;4.93;;;12.60;99.90;;;;;;6117330;23;20536;-81
2023/07/18 02:44:45;;;;;;;15.30;5.00;;;13.20;99.90;;;;;;6124466;23;20092;-81
2023/07/18 02:47:11;;;;;;;12.73;4.60;;;12.80;99.90;;;;;;6123498;23;20017;-81
2023/07/18 02:49:37;;;;;;;13.82;5.18;;;12.40;99.90;;;;;;6151387;22;20334;-81
2023/07/18 02:52:03;;;;;;;14.27;5.07;;;12.50;99.90;;;;;;6206007;22;20431;-81
2023/07/18 02:54:43;;;;;;;15.20;5.07;;;12.10;99.90;;;;;;6275513;22;20046;-81
2023/07/18 02:57:09;;;;;;;15.00;4.75;;;12.20;99.90;;;;;;6274830;22;20047;-81
2023/07/18 02:59:34;;;;;;;15.55;5.00;;;12.20;99.90;;;;;;6273309;22;20038;-81
2023/07/18 03:02:06;;;;;;;14.60;4.93;;;12.20;99.90;;;;;;6273530;22;20019;-81
2023/07/18 03:04:32;;;;;;;12.48;4.82;;;13.40;99.90;;;;;;6272955;22;20016;-81
2023/07/18 03:07:07;;;;;;;15.43;4.78;;;12.20;99.90;;;;;;6272876;22;20073;-81
2023/07/18 03:09:34;;;;;;;12.23;4.78;;;12.10;99.90;;;;;;6274812;22;20559;-81
2023/07/18 03:12:01;;;;;;;14.20;4.72;;;12.20;99.90;;;;;;6276537;22;20015;-81
2023/07/18 03:14:44;;;;;;;13.95;4.45;;;13.10;99.90;;;;;;6273099;22;20118;-81
2023/07/18 03:17:10;;;;;;;12.38;4.72;;;12.20;99.90;;;;;;6274502;22;20031;-81
2023/07/18 03:19:51;;;;;;;12.57;4.40;;;13.20;99.90;;;;;;6273496;22;20008;-81
2023/07/18 03:22:17;;;;;;;11.23;4.38;;;12.10;99.90;;;;;;6271904;22;20023;-81
2023/07/18 03:24:43;;;;;;;13.30;4.80;;;13.30;99.90;;;;;;6275388;22;20012;-81
2023/07/18 03:27:26;;;;;;;13.20;4.57;;;13.10;99.90;;;;;;6274892;22;20015;-81
2023/07/18 03:29:51;;;;;;;15.77;5.03;;;12.10;99.90;;;;;;6272765;22;20016;-81
2023/07/18 03:32:17;;;;;;;14.30;4.93;;;13.20;99.90;;;;;;6274897;22;20016;-81
2023/07/18 03:34:59;;;;;;;13.77;4.60;;;12.10;99.90;;;;;;6273962;22;20012;-81
2023/07/18 03:37:26;;;;;;;13.43;5.00;;;12.10;99.90;;;;;;6273509;22;20015;-81
2023/07/18 03:39:52;;;;;;;14.57;4.60;;;13.30;99.90;;;;;;6272857;22;20073;-81
2023/07/18 03:42:33;;;;;;;13.13;4.60;;;12.10;99.90;;;;;;6272292;22;20019;-81
2023/07/18 03:44:58;;;;;;;13.30;4.60;;;12.10;99.90;;;;;;6275170;22;20015;-81
2023/07/18 03:47:24;;;;;;;13.13;4.53;;;12.20;99.90;;;;;;6272703;22;20018;-81
2023/07/18 03:49:50;;;;;;;15.13;5.00;;;12.20;99.90;;;;;;6272700;22;20038;-81
2023/07/18 03:52:31;;;;;;;13.40;4.18;;;12.30;99.90;;;;;;6263946;22;20047;-81
2023/07/18 03:54:57;;;;;;;13.60;4.60;;;13.30;99.90;;;;;;6274108;22;20027;-81
2023/07/18 03:57:22;;;;;;;12.95;4.72;;;12.30;99.90;;;;;;6275096;22;20008;-81
2023/07/18 03:59:48;;;;;;;12.95;4.38;;;12.30;99.90;;;;;;6275871;22;20536;-81
2023/07/18 04:02:34;;;;;;;13.10;4.95;;;13.50;99.90;;;;;;6271397;22;20028;-81
2023/07/18 04:04:59;;;;;;;13.23;4.32;;;12.40;99.90;;;;;;6272176;22;20016;-81
2023/07/18 04:07:44;;;;;;;14.95;4.80;;;12.40;99.90;;;;;;6272864;22;20019;-81
2023/07/18 04:10:11;;;;;;;;;;;12.40;99.90;;;;;;6274268;22;20022;-82
2023/07/18 04:12:49;;;;;;;14.10;4.65;;;12.50;99.90;;;;;;6290242;22;19916;-81
2023/07/18 04:15:15;;;;;;;16.27;4.53;;;12.60;99.90;;;;;;6283330;22;20016;-81
2023/07/18 04:17:41;;;;;;;11.52;4.03;;;12.60;99.90;;;;;;6274120;22;20030;-82
2023/07/18 04:20:24;;;;;;;13.40;4.30;;;12.60;99.90;;;;;;6278233;22;20056;-82
2023/07/18 04:22:50;;;;;;;16.27;4.70;;;13.70;99.90;;;;;;6275186;22;20020;-81
2023/07/18 04:25:35;;;;;;;12.20;4.53;;;12.70;99.90;;;;;;6277148;22;20065;-82
2023/07/18 04:28:02;;;;;;;13.50;4.30;;;13.70;99.90;;;;;;6275611;22;20456;-82
2023/07/18 04:30:40;;;;;;;13.38;4.57;;;13.70;99.90;;;;;;6274122;22;20073;-81
2023/07/18 04:33:11;;;;;;;14.75;4.30;;;13.50;99.90;;;;;;6277116;22;20019;-82
2023/07/18 04:35:36;;;;;;;13.23;4.15;;;13.80;99.90;;;;;;6279554;22;20090;-81
2023/07/18 04:38:09;;;;;;;13.95;4.40;;;13.80;99.90;;;;;;6276873;22;20043;-81
2023/07/18 04:40:35;;;;;;;14.80;4.47;;;13.90;99.90;;;;;;6278082;22;20023;-82
2023/07/18 04:43:22;;;;;;;14.82;4.20;;;13.70;99.90;;;;;;6278591;22;20015;-82
2023/07/18 04:46:07;;;;;;;12.98;4.22;;;13.10;99.90;;;;;;6279501;22;20016;-81
2023/07/18 04:48:33;;;;;;;13.48;4.15;;;14.20;99.90;;;;;;6280369;22;20477;-82
2023/07/18 04:51:01;;;;;;;17.02;4.25;;;13.40;99.90;;;;;;6271033;22;20090;-82
2023/07/18 04:53:29;;;;;;;14.02;4.13;;;13.50;99.90;;;;;;6257778;22;20022;-82
2023/07/18 04:56:15;;;;;;;12.15;4.20;;;13.70;99.90;;;;;;6258505;22;20022;-81
2023/07/18 04:58:41;;;;;;;14.27;4.25;;;13.80;99.90;;;;;;6256149;22;20052;-82
2023/07/18 05:01:08;;;;;;;11.70;4.47;;;13.90;99.90;;;;;;6258597;22;20438;-82
2023/07/18 05:03:46;;;;;;;12.30;4.00;;;14.00;99.90;;;;;;6254873;22;20100;-82
2023/07/18 05:06:12;;;;;;;10.93;3.85;;;13.90;99.90;;;;;;6255549;22;20103;-82
2023/07/18 05:08:53;;;;;;;13.18;4.03;;;14.70;99.90;;;;;;6147335;22;20453;-82
2023/07/18 05:11:19;;;;;;;12.85;4.10;;;14.30;99.90;;;;;;6254525;22;20023;-82
2023/07/18 05:13:44;;;;;;;13.15;3.90;;;14.40;99.90;;;;;;6148900;23;20013;-82
2023/07/18 05:16:25;;;;;;;12.48;3.78;;;14.30;99.90;;;;;;6254390;22;20036;-82
2023/07/18 05:18:51;;;;;;;11.48;3.95;;;14.40;99.90;;;;;;6151509;23;20028;-82
2023/07/18 05:21:23;;;;;;;12.38;3.75;;;14.60;99.90;;;;;;6252767;22;20040;-82
2023/07/18 05:23:52;;;;;;;12.50;3.72;;;14.60;99.90;;;;;;6150250;23;20017;-82
2023/07/18 05:26:29;;;;;;;12.88;3.70;;;14.70;99.90;;;;;;6254222;22;20020;-82
2023/07/18 05:28:55;;;;;;;14.77;3.75;;;15.00;99.90;;;;;;6149959;22;20453;-82
2023/07/18 05:31:21;;;;;;;10.43;3.65;;;14.70;99.90;;;;;;6149700;23;20029;-82
2023/07/18 05:34:04;;;;;;;12.27;3.63;;;14.80;99.90;;;;;;6149494;23;20385;-82
2023/07/18 05:37:03;;;;;;;9.70;3.30;;;14.70;99.90;;;;;;6252985;22;20021;-82
2023/07/18 05:39:42;;;;;;;11.93;3.55;;;14.60;99.90;;;;;;6252273;22;20104;-82
2023/07/18 05:42:08;;;;;;;13.40;3.65;;;15.50;99.90;;;;;;6252632;22;20063;-82
2023/07/18 05:44:49;;;;;;;11.82;3.90;;;14.90;99.90;;;;;;6253407;22;20341;-82
2023/07/18 05:47:15;;;;;;;11.88;4.40;;;15.00;99.90;;;;;;6253499;22;20449;-82
2023/07/18 05:49:56;;;;;;;13.48;4.82;;;15.00;99.90;;;;;;6150496;23;20036;-82
2023/07/18 05:52:21;;;;;;;12.38;4.03;;;15.00;99.90;;;;;;6258922;22;20132;-83
2023/07/18 05:54:47;;;;;;;12.32;4.00;;;15.00;99.90;;;;;;6274619;22;20448;-82
2023/07/18 05:57:25;;;;;;;21.55;5.35;;;15.70;99.90;;;;;;6274392;22;20094;-82
2023/07/18 05:59:51;;;;;;;14.57;4.45;;;14.50;99.90;;;;;;6274576;22;20020;-82
2023/07/18 06:02:17;;;;;;;12.18;4.30;;;15.60;99.90;;;;;;6274395;22;20022;-82
2023/07/18 06:08:18;;;;;;;11.30;3.90;;;15.40;99.90;;;;;;6210862;23;20096;-82
2023/07/18 06:10:44;;;;;;;15.57;4.57;;;15.60;99.90;;;;;;6239836;22;20050;-82
2023/07/18 06:13:28;;;;;;;12.35;4.45;;;15.60;99.90;;;;;;6275919;22;20028;-82
2023/07/18 06:15:54;;;;;;;12.63;4.40;;;16.00;99.90;;;;;;6273124;22;20425;-83
2023/07/18 06:18:19;;;;;;;12.15;4.25;;;15.80;99.90;;;;;;6273871;22;20100;-83
2023/07/18 06:21:00;;;;;;;11.27;3.58;;;15.90;99.90;;;;;;6273152;22;20008;-83
2023/07/18 06:23:27;;;;;;;11.63;3.45;;;15.60;99.90;;;;;;6275172;22;20047;-82
2023/07/18 06:26:10;;;;;;;13.38;3.30;;;16.90;99.90;;;;;;6275634;22;20024;-82
2023/07/18 06:28:36;;;;;;;13.93;3.50;;;16.70;99.90;;;;;;6273182;22;20035;-82
2023/07/18 06:31:02;;;;;;;12.75;4.05;;;16.40;99.90;;;;;;6275994;22;20090;-84
2023/07/18 06:33:43;;;;;;;10.95;3.40;;;16.90;99.90;;;;;;6275102;22;20015;-82
2023/07/18 06:36:09;;;;;;;11.57;3.70;;;16.30;99.90;;;;;;6276199;22;20019;-81
2023/07/18 06:38:35;;;;;;;9.50;3.15;;;16.40;99.90;;;;;;6274227;22;20397;-82
2023/07/18 06:41:18;;;;;;;13.52;3.85;;;16.50;99.90;;;;;;6273466;22;20050;-81
2023/07/18 06:43:58;;;;;;;;;;;16.60;99.90;;;;;;6274038;22;20073;-81
2023/07/18 06:46:23;;;;;;;9.38;3.28;;;16.70;99.90;;;;;;6272910;22;19985;-81
2023/07/18 06:49:01;;;;;;;11.90;3.88;;;17.00;99.90;;;;;;6275246;22;20470;-81
2023/07/18 06:51:27;;;;;;;11.40;3.35;;;17.10;99.90;;;;;;6265574;22;20070;-82
2023/07/18 06:53:53;;;;;;;11.70;3.33;;;17.30;99.90;;;;;;6149600;22;20017;-81
2023/07/18 06:56:18;;;;;;;10.40;3.75;;;17.30;99.90;;;;;;6252583;22;20021;-81
2023/07/18 06:58:44;;;;;;;10.02;3.72;;;17.50;99.90;;;;;;6148795;23;20017;-80
2023/07/18 07:01:10;;;;;;;11.43;3.30;;;17.60;99.90;;;;;;6150421;23;20027;-80
2023/07/18 07:03:36;;;;;;;12.90;3.50;;;17.80;99.90;;;;;;6253068;22;20021;-81
2023/07/18 07:06:01;;;;;;;12.07;3.33;;;17.70;99.90;;;;;;6251826;22;20045;-81
2023/07/18 07:08:29;;;;;;;9.88;3.40;;;17.70;99.90;;;;;;6253007;22;20342;-80
2023/07/18 07:11:08;;;;;;;12.98;3.63;;;17.90;99.90;;;;;;6150422;23;20319;-81
2023/07/18 07:13:37;;;;;;;14.98;3.78;;;18.10;99.90;;;;;;6251529;22;20022;-81
2023/07/18 07:16:04;;;;;;;12.75;3.03;;;18.20;99.90;;;;;;6252981;22;20013;-81
2023/07/18 07:18:30;;;;;;;11.50;3.28;;;18.40;99.90;;;;;;6253137;22;20025;-82
2023/07/18 07:21:02;;;;;;;12.60;3.35;;;18.60;99.90;;;;;;6245214;22;20021;-81
2023/07/18 07:23:28;;;;;;;11.50;3.58;;;18.60;99.90;;;;;;6151670;23;20041;-81
2023/07/18 07:26:06;;;;;;;12.23;3.63;;;18.70;99.90;;;;;;6253762;22;20085;-82
2023/07/18 07:28:32;;;;;;;11.23;3.60;;;18.60;99.90;;;;;;6149675;23;20100;-82
2023/07/18 07:31:14;;;;;;;11.98;3.90;;;18.60;99.90;;;;;;6252466;22;20017;-82
2023/07/18 07:33:41;;;;;;;11.73;3.83;;;18.60;99.90;;;;;;6251585;22;20515;-81
2023/07/18 07:36:06;;;;;;;12.38;3.70;;;18.50;99.90;;;;;;6149437;23;20014;-81
2023/07/18 07:38:42;;;;;;;14.52;4.10;;;18.40;99.90;;;;;;6251545;22;20075;-82
2023/07/18 07:41:08;;;;;;;12.60;4.10;;;18.50;99.90;;;;;;6251776;22;20052;-82
2023/07/18 07:43:34;;;;;;;12.52;4.10;;;18.60;99.90;;;;;;6252279;22;20022;-82
2023/07/18 07:46:21;;;;;;;11.93;3.58;;;18.60;99.90;;;;;;6252967;22;20021;-83
2023/07/18 07:49:11;;;;;;;13.07;4.00;;;18.60;99.90;;;;;;6251279;22;20342;-84
2023/07/18 07:56:18;;;;;;;12.30;3.85;;;18.80;99.90;;;;;;6149631;23;20018;-83
2023/07/18 07:59:08;;;;;;;11.32;4.00;;;19.00;99.90;;;;;;6252035;22;20013;-84
2023/07/18 08:01:34;;;;;;;14.23;3.72;;;19.20;99.90;;;;;;6148731;23;20017;-83
2023/07/18 08:04:12;;;;;;;13.77;3.80;;;19.30;99.90;;;;;;6253050;22;20090;-83
2023/07/18 08:06:39;;;;;;;13.60;3.35;;;19.40;99.90;;;;;;6150260;23;20021;-83
2023/07/18 08:09:12;;;;;;;12.93;3.92;;;19.50;99.90;;;;;;6149955;22;20025;-83
2023/07/18 08:11:56;;;;;;;16.20;4.47;;;19.60;99.90;;;;;;6252696;22;20025;-83
2023/07/18 08:14:28;;;;;;;11.77;3.60;;;19.80;99.90;;;;;;6250852;22;20067;-83
2023/07/18 08:16:54;;;;;;;11.90;2.80;;;19.90;99.90;;;;;;6148926;23;20086;-83
2023/07/18 08:19:33;;;;;;;11.68;3.10;;;20.00;99.90;;;;;;6150601;23;20441;-84
2023/07/18 08:22:05;;;;;;;10.10;3.20;;;20.00;99.90;;;;;;6253136;22;20013;-83
2023/07/18 08:25:09;;;;;;;12.40;3.40;;;19.90;99.90;;;;;;6148932;23;20485;-83
2023/07/18 08:27:35;;;;;;;11.97;3.40;;;20.00;99.90;;;;;;6251830;22;20024;-80
2023/07/18 08:30:01;;;;;;;11.68;3.00;;;20.10;99.90;;;;;;6149111;23;20049;-80
2023/07/18 08:32:27;;;;;;;13.90;3.30;;;20.20;99.90;;;;;;6149183;23;20028;-80
2023/07/18 08:34:54;;;;;;;14.20;3.60;;;20.10;99.90;;;;;;6251480;22;20013;-80
2023/07/18 08:37:39;;;;;;;12.70;3.03;;;20.10;99.90;;;;;;6251991;22;20029;-80
2023/07/18 08:40:20;;;;;;;13.13;3.53;;;20.20;99.90;;;;;;6253167;22;20022;-81
2023/07/18 08:42:47;;;;;;;10.13;2.90;;;20.40;99.90;;;;;;6150216;22;20017;-80
2023/07/18 08:45:14;;;;;;;12.15;3.00;;;20.60;99.90;;;;;;6149303;23;20013;-80
2023/07/18 08:47:55;;;;;;;11.50;2.63;;;20.70;99.90;;;;;;6149530;23;20146;-80
2023/07/18 08:50:35;;;;;;;10.00;2.95;;;20.80;99.90;;;;;;6150242;23;20101;-80
2023/07/18 08:53:05;;;;;;;10.20;2.63;;;21.00;99.90;;;;;;6149316;23;20096;-81
2023/07/18 08:55:31;;;;;;;9.27;2.67;;;21.00;99.90;;;;;;6149699;22;20103;-80
2023/07/18 08:57:59;;;;;;;8.50;2.38;;;20.90;99.90;;;;;;6148709;23;20010;-81
2023/07/18 09:00:25;;;;;;;10.35;2.55;;;21.10;99.90;;;;;;6252710;22;20025;-80
2023/07/18 09:02:54;;;;;;;9.50;2.67;;;21.10;99.90;;;;;;6250773;22;20062;-80
2023/07/18 09:05:36;;;;;;;8.70;2.33;;;21.10;99.90;;;;;;6149787;22;20492;-81
2023/07/18 09:08:11;;;;;;;9.40;2.20;;;21.30;99.90;;;;;;6254399;22;20029;-80
2023/07/18 09:10:37;;;;;;;8.75;2.42;;;21.30;99.90;;;;;;6151539;23;20018;-80
2023/07/18 09:13:05;;;;;;;8.07;2.10;;;21.30;99.90;;;;;;6252883;22;20509;-81
2023/07/18 09:15:47;;;;;;;10.27;2.40;;;21.40;99.90;;;;;;6150993;23;20024;-84
2023/07/18 09:18:57;;;;;;;7.50;2.00;;;21.40;99.90;;;;;;6151085;23;20022;-84
2023/07/18 09:21:23;;;;;;;8.13;2.30;;;21.30;99.90;;;;;;6222473;22;20021;-82
2023/07/18 09:24:05;;;;;;;6.93;1.95;;;21.40;99.90;;;;;;6253621;22;20025;-83
2023/07/18 09:26:47;;;;;;;7.80;2.05;;;21.60;99.90;;;;;;6149235;23;20018;-81
2023/07/18 09:29:15;;;;;;;7.28;2.08;;;21.60;99.90;;;;;;6151213;23;20029;-82
2023/07/18 09:32:07;;;;;;;8.00;2.30;;;21.80;99.90;;;;;;6252687;22;20029;-82
2023/07/18 09:34:33;;;;;;;7.20;1.70;;;21.70;99.30;;;;;;6150119;23;20088;-82
2023/07/18 09:37:01;;;;;;;8.25;2.20;;;21.90;99.90;;;;;;6150592;23;20056;-82
2023/07/18 09:39:27;;;;;;;8.73;2.08;;;22.10;99.90;;;;;;6150767;23;20018;-81
2023/07/18 09:42:09;;;;;;;7.20;2.00;;;22.20;99.90;;;;;;6251765;22;20089;-83
2023/07/18 09:44:55;;;;;;;7.05;1.90;;;22.40;99.90;;;;;;6149538;22;20010;-82
2023/07/18 09:47:36;;;;;;;7.65;2.10;;;22.30;99.90;;;;;;6253299;22;20381;-82
2023/07/18 09:50:02;;;;;;;6.60;1.90;;;22.10;99.90;;;;;;6151664;22;20013;-83
2023/07/18 09:52:41;;;;;;;8.35;1.80;;;22.10;99.90;;;;;;6253651;22;20017;-83
2023/07/18 09:55:09;;;;;;;7.20;1.90;;;21.90;98.20;;;;;;6150970;23;20020;-82
2023/07/18 09:57:55;;;;;;;6.72;2.00;;;22.00;99.90;;;;;;6253953;22;20021;-82
2023/07/18 10:00:23;;;;;;;8.50;2.13;;;22.20;99.90;;;;;;6253112;22;20024;-82
2023/07/18 10:03:03;;;;;;;5.50;1.90;;;22.20;99.80;;;;;;6251757;22;20476;-81
2023/07/18 10:05:29;;;;;;;7.47;1.90;;;22.50;97.80;;;;;;6151420;23;20434;-80
2023/07/18 10:07:56;;;;;;;6.72;2.03;;;22.50;99.90;;;;;;6254176;22;20024;-80
2023/07/18 10:10:21;;;;;;;7.60;2.10;;;22.50;99.90;;;;;;6252944;22;20018;-81
2023/07/18 10:13:01;;;;;;;7.22;2.00;;;22.60;99.90;;;;;;6151199;23;20010;-81
2023/07/18 10:15:27;;;;;;;6.50;1.83;;;22.70;96.50;;;;;;6150620;23;20055;-81
2023/07/18 10:17:53;;;;;;;6.68;1.92;;;22.80;98.70;;;;;;6149884;23;20017;-82
2023/07/18 10:20:25;;;;;;;6.30;2.08;;;23.00;99.50;;;;;;6253044;22;20048;-82
2023/07/18 10:22:58;;;;;;;6.70;1.92;;;23.10;97.40;;;;;;6251146;22;20014;-82
2023/07/18 10:25:31;;;;;;;6.10;1.80;;;23.20;96.50;;;;;;6254407;22;20017;-82
2023/07/18 10:27:58;;;;;;;6.75;2.05;;;23.20;96.40;;;;;;6152556;23;20056;-82
2023/07/18 10:30:37;;;;;;;8.02;1.80;;;23.30;98.60;;;;;;6264887;22;20018;-80
2023/07/18 10:33:03;;;;;;;6.43;1.80;;;23.50;96.10;;;;;;6272932;22;20025;-81
2023/07/18 10:35:29;;;;;;;5.97;1.60;;;23.70;98.20;;;;;;6275389;22;20018;-83
2023/07/18 10:38:09;;;;;;;5.82;1.60;;;24.00;97.90;;;;;;6260401;22;20018;-81
2023/07/18 10:40:43;;;;;;;4.95;1.50;;;23.90;94.60;;;;;;6150771;23;20014;-81
2023/07/18 10:43:18;;;;;;;7.03;1.90;;;24.10;94.20;;;;;;6149924;23;20025;-80
2023/07/18 10:45:44;;;;;;;6.80;2.25;;;24.20;94.40;;;;;;6252645;22;20014;-81
2023/07/18 10:48:12;;;;;;;6.70;1.80;;;24.30;96.90;;;;;;6253457;22;20052;-81
2023/07/18 10:50:39;;;;;;;8.60;2.13;;;24.30;96.70;;;;;;6252714;22;20025;-81
2023/07/18 10:53:04;;;;;;;5.85;1.70;;;24.10;96.40;;;;;;6151015;23;20024;-81
2023/07/18 10:55:30;;;;;;;6.95;1.90;;;23.90;96.40;;;;;;6150843;23;20018;-80
2023/07/18 10:57:56;;;;;;;7.82;2.00;;;24.00;96.80;;;;;;6150174;23;20013;-80
2023/07/18 11:00:24;;;;;;;6.57;2.15;;;23.70;96.50;;;;;;6253382;22;20028;-81
2023/07/18 11:02:50;;;;;;;7.13;2.05;;;24.00;96.60;;;;;;6252777;22;20342;-80
2023/07/18 11:05:16;;;;;;;7.07;2.00;;;24.10;95.90;;;;;;6252920;22;20437;-79
2023/07/18 11:07:44;;;;;;;6.85;1.83;;;24.10;96.40;;;;;;6149491;23;20569;-79
2023/07/18 11:10:13;;;;;;;7.43;1.90;;;23.90;95.30;;;;;;6250046;22;20063;-79
2023/07/18 11:12:39;;;;;;;6.65;1.92;;;23.90;96.20;;;;;;6248352;22;20021;-79
2023/07/18 11:15:06;;;;;;;7.70;2.00;;;23.90;96.10;;;;;;6148265;23;20092;-81
2023/07/18 11:17:32;;;;;;;7.18;1.90;;;24.00;96.30;;;;;;6251268;22;20123;-81
2023/07/18 11:19:57;;;;;;;6.95;1.77;;;23.90;94.30;;;;;;6251484;22;20071;-80
2023/07/18 11:22:24;;;;;;;7.80;1.70;;;24.10;96.00;;;;;;6253087;22;20464;-81
2023/07/18 11:24:51;;;;;;;6.55;1.88;;;24.30;95.80;;;;;;6150830;23;20018;-80
2023/07/18 11:27:24;;;;;;;5.38;1.77;;;24.30;95.10;;;;;;6149190;23;20029;-80
2023/07/18 11:29:53;;;;;;;5.80;1.88;;;24.30;95.30;;;;;;6253092;22;20346;-80
2023/07/18 11:32:42;;;;;;;6.90;2.00;;;24.40;94.90;;;;;;6252778;22;20485;-80
2023/07/18 11:35:28;;;;;;;6.32;1.90;;;24.60;94.60;;;;;;6253069;22;20386;-80
2023/07/18 11:37:54;;;;;;;6.53;1.70;;;24.70;95.50;;;;;;6150709;22;20017;-79
2023/07/18 11:40:22;;;;;;;8.30;2.00;;;24.80;95.40;;;;;;6150291;23;20139;-80
2023/07/18 11:42:53;;;;;;;7.75;1.85;;;25.10;95.30;;;;;;6252340;22;20022;-82
2023/07/18 11:45:20;;;;;;;5.57;1.90;;;25.30;93.60;;;;;;6150152;22;20345;-79
2023/07/18 11:47:57;;;;;;;7.22;1.90;;;25.50;94.70;;;;;;6148493;23;20018;-80
2023/07/18 11:50:26;;;;;;;7.40;2.20;;;25.50;93.90;;;;;;6150073;23;20071;-81
2023/07/18 11:52:53;;;;;;;8.02;2.15;;;25.20;93.90;;;;;;6149308;23;20017;-80
2023/07/18 11:55:20;;;;;;;6.70;2.00;;;25.60;94.60;;;;;;6150287;23;20440;-81
2023/07/18 11:57:48;;;;;;;6.72;2.22;;;25.80;94.40;;;;;;6252756;22;20480;-80
2023/07/18 12:00:15;;;;;;;6.28;1.90;;;25.80;93.90;;;;;;6151101;22;20014;-80
2023/07/18 12:02:41;;;;;;;7.50;1.98;;;25.70;93.80;;;;;;6148468;23;20341;-80
2023/07/18 12:05:07;;;;;;;7.43;2.03;;;25.70;94.00;;;;;;6253419;22;20430;-81
2023/07/18 12:07:34;;;;;;;6.50;1.90;;;25.70;93.80;;;;;;6148894;23;20355;-81
2023/07/18 12:10:01;;;;;;;7.30;1.90;;;26.00;93.60;;;;;;6252761;22;20341;-82
2023/07/18 12:12:26;;;;;;;5.82;1.80;;;26.00;93.60;;;;;;6150311;23;20071;-82
2023/07/18 12:14:53;;;;;;;5.18;1.80;;;25.90;93.40;;;;;;6251898;22;20446;-81
2023/07/18 12:17:19;;;;;;;5.50;1.70;;;26.10;93.30;;;;;;6150225;22;20098;-81
2023/07/18 12:19:45;;;;;;;6.32;2.03;;;26.20;93.40;;;;;;6150429;23;20018;-82
2023/07/18 12:22:11;;;;;;;7.28;1.77;;;26.00;92.90;;;;;;6149201;23;20018;-80
2023/07/18 12:24:37;;;;;;;5.22;1.67;;;25.90;92.80;;;;;;6252255;22;20402;-80
2023/07/18 12:27:04;;;;;;;5.38;1.80;;;25.90;92.80;;;;;;6151281;22;20018;-82
2023/07/18 12:29:30;;;;;;;5.30;1.70;;;25.80;92.50;;;;;;6253365;22;20334;-82
2023/07/18 12:31:56;;;;;;;5.53;1.70;;;25.70;92.50;;;;;;6150806;23;20028;-82
2023/07/18 12:34:22;;;;;;;5.75;1.75;;;25.80;92.20;;;;;;6254911;22;20441;-82
2023/07/18 12:36:48;;;;;;;6.53;1.80;;;25.90;92.30;;;;;;6150820;23;20018;-82
2023/07/18 12:39:15;;;;;;;6.35;1.70;;;26.10;92.80;;;;;;6255752;22;20013;-85
2023/07/18 12:41:41;;;;;;;5.88;1.95;;;26.10;92.50;;;;;;6255016;22;20021;-85
2023/07/18 12:44:20;;;;;;;6.72;1.90;;;26.10;92.00;;;;;;6150850;22;20037;-85
2023/07/18 12:46:46;;;;;;;6.28;2.05;;;26.20;91.60;;;;;;6253950;22;20036;-84
2023/07/18 12:49:13;;;;;;;4.95;1.60;;;26.40;91.90;;;;;;6255166;22;20096;-85
2023/07/18 12:51:51;;;;;;;5.75;1.70;;;26.60;91.20;;;;;;6253556;22;20501;-85
2023/07/18 12:54:17;;;;;;;6.85;1.95;;;26.60;91.50;;;;;;6151904;22;20024;-90
2023/07/18 12:56:46;;;;;;;3.72;1.58;;;26.70;91.60;;;;;;6255082;22;20014;-89
2023/07/18 12:59:16;;;;;;;4.65;1.80;;;26.70;90.50;;;;;;6254198;22;20141;-85
2023/07/18 13:01:58;;;;;;;6.18;1.50;;;27.10;91.10;;;;;;6253221;22;20064;-86
2023/07/18 13:04:24;;;;;;;5.80;1.67;;;27.20;90.00;;;;;;6252906;22;20041;-86
2023/07/18 13:10:33;;;;;;;5.63;1.70;;;27.00;87.80;;;;;;6150041;23;20016;-86
2023/07/18 13:12:59;;;;;;;4.88;1.75;;;27.10;90.00;;;;;;6253737;22;20021;-85
2023/07/18 13:15:25;;;;;;;6.95;1.70;;;27.10;90.40;;;;;;6254223;22;20010;-86
2023/07/18 13:18:03;;;;;;;5.60;1.70;;;26.60;90.40;;;;;;6149444;23;20017;-85
2023/07/18 13:20:28;;;;;;;5.30;1.50;;;26.30;89.50;;;;;;6255151;22;20039;-85